sensor_id;sensor_type;location;lat;lon;timestamp;pressure;altitude;pressure_sealevel;temperature;humidity
9281;BME280;4679;47.966;7.958;2022-07-24T06:22:04;97519.09;;;20.68;69.25
9281;BME280;4679;47.966;7.958;2022-07-24T06:24:06;97509.50;;;20.76;69.15
9281;BME280;4679;47.966;7.958;2022-07-24T06:26:08;97519.09;;;20.82;68.98
9281;BME280;4679;47.966;7.958;2022-07-24T06:28:09;97503.91;;;20.86;68.99
9281;BME280;4679;47.966;7.958;2022-07-24T06:30:13;97513.69;;;20.96;68.91
9281;BME280;4679;47.966;7.958;2022-07-24T06:32:15;97510.00;;;21.05;68.28
9281;BME280;4679;47.966;7.958;2022-07-24T06:34:16;97512.41;;;21.21;68.67
9281;BME280;4679;47.966;7.958;2022-07-24T06:36:20;97499.69;;;21.35;68.13
9281;BME280;4679;47.966;7.958;2022-07-24T06:38:23;97498.06;;;21.48;67.87
9281;BME280;4679;47.966;7.958;2022-07-24T06:40:25;97493.00;;;21.55;67.80
9281;BME280;4679;47.966;7.958;2022-07-24T06:42:27;97491.19;;;21.64;67.43
9281;BME280;4679;47.966;7.958;2022-07-24T06:44:29;97489.34;;;21.73;66.96
9281;BME280;4679;47.966;7.958;2022-07-24T06:46:31;97487.53;;;21.82;66.77
9281;BME280;4679;47.966;7.958;2022-07-24T06:48:32;97494.09;;;21.90;66.44
9281;BME280;4679;47.966;7.958;2022-07-24T06:50:34;97494.66;;;22.00;66.37
9281;BME280;4679;47.966;7.958;2022-07-24T06:52:36;97489.31;;;22.09;66.26
9281;BME280;4679;47.966;7.958;2022-07-24T06:54:39;97486.66;;;22.18;65.96
9281;BME280;4679;47.966;7.958;2022-07-24T06:56:42;97491.19;;;22.31;65.54
9281;BME280;4679;47.966;7.958;2022-07-24T06:58:44;97486.34;;;22.41;65.72
9281;BME280;4679;47.966;7.958;2022-07-24T07:00:45;97494.16;;;22.52;65.38
9281;BME280;4679;47.966;7.958;2022-07-24T07:02:47;97486.91;;;22.61;65.24
9281;BME280;4679;47.966;7.958;2022-07-24T07:04:50;97487.84;;;22.65;64.82
9281;BME280;4679;47.966;7.958;2022-07-24T07:06:52;97490.59;;;22.73;64.85
9281;BME280;4679;47.966;7.958;2022-07-24T07:08:53;97480.31;;;22.84;64.39
9281;BME280;4679;47.966;7.958;2022-07-24T07:10:56;97484.31;;;22.95;64.34
9281;BME280;4679;47.966;7.958;2022-07-24T07:12:58;97481.66;;;23.04;64.14
9281;BME280;4679;47.966;7.958;2022-07-24T07:15:00;97477.03;;;23.13;63.70
9281;BME280;4679;47.966;7.958;2022-07-24T07:17:02;97477.72;;;23.19;63.54
9281;BME280;4679;47.966;7.958;2022-07-24T07:19:04;97485.81;;;23.27;63.53
9281;BME280;4679;47.966;7.958;2022-07-24T07:21:06;97485.84;;;23.36;63.40
9281;BME280;4679;47.966;7.958;2022-07-24T07:23:07;97469.44;;;23.49;62.90
9281;BME280;4679;47.966;7.958;2022-07-24T07:25:10;97480.16;;;23.63;62.57
9281;BME280;4679;47.966;7.958;2022-07-24T07:27:13;97477.59;;;23.75;62.25
9281;BME280;4679;47.966;7.958;2022-07-24T07:29:15;97480.63;;;23.82;61.90
9281;BME280;4679;47.966;7.958;2022-07-24T07:31:17;97484.13;;;23.92;61.83
9281;BME280;4679;47.966;7.958;2022-07-24T07:33:18;97473.94;;;23.97;61.60
9281;BME280;4679;47.966;7.958;2022-07-24T07:35:20;97485.38;;;24.03;61.19
9281;BME280;4679;47.966;7.958;2022-07-24T07:37:23;97473.25;;;24.09;60.85
9281;BME280;4679;47.966;7.958;2022-07-24T07:39:24;97472.44;;;24.17;60.79
9281;BME280;4679;47.966;7.958;2022-07-24T07:41:26;97482.31;;;24.30;60.32
9281;BME280;4679;47.966;7.958;2022-07-24T07:43:29;97475.44;;;24.41;60.05
9281;BME280;4679;47.966;7.958;2022-07-24T07:45:31;97470.13;;;24.53;59.82
9281;BME280;4679;47.966;7.958;2022-07-24T07:47:35;97482.53;;;24.63;59.48
9281;BME280;4679;47.966;7.958;2022-07-24T07:49:37;97474.03;;;24.73;59.05
9281;BME280;4679;47.966;7.958;2022-07-24T07:51:38;97479.25;;;24.78;58.74
9281;BME280;4679;47.966;7.958;2022-07-24T07:53:40;97475.09;;;24.89;58.62
9281;BME280;4679;47.966;7.958;2022-07-24T07:55:42;97465.94;;;25.03;58.07
9281;BME280;4679;47.966;7.958;2022-07-24T07:57:44;97469.53;;;25.15;57.74
9281;BME280;4679;47.966;7.958;2022-07-24T07:59:47;97477.75;;;25.28;57.59
9281;BME280;4679;47.966;7.958;2022-07-24T08:01:49;97474.31;;;25.39;57.01
9281;BME280;4679;47.966;7.958;2022-07-24T08:03:51;97474.91;;;25.45;56.74
9281;BME280;4679;47.966;7.958;2022-07-24T08:05:52;97476.56;;;25.58;56.70
9281;BME280;4679;47.966;7.958;2022-07-24T08:07:54;97474.25;;;25.69;56.49
9281;BME280;4679;47.966;7.958;2022-07-24T08:09:56;97465.81;;;25.82;55.77
9281;BME280;4679;47.966;7.958;2022-07-24T08:11:57;97471.00;;;25.96;55.38
9281;BME280;4679;47.966;7.958;2022-07-24T08:13:59;97469.22;;;26.12;55.37
9281;BME280;4679;47.966;7.958;2022-07-24T08:16:03;97466.53;;;26.24;54.78
9281;BME280;4679;47.966;7.958;2022-07-24T08:18:04;97461.81;;;26.34;54.98
9281;BME280;4679;47.966;7.958;2022-07-24T08:20:07;97460.25;;;26.45;54.04
9281;BME280;4679;47.966;7.958;2022-07-24T08:22:09;97457.31;;;26.50;54.44
9281;BME280;4679;47.966;7.958;2022-07-24T08:24:11;97459.56;;;26.60;53.61
9281;BME280;4679;47.966;7.958;2022-07-24T08:26:12;97462.41;;;26.76;53.69
9281;BME280;4679;47.966;7.958;2022-07-24T08:28:14;97462.88;;;26.78;53.70
9281;BME280;4679;47.966;7.958;2022-07-24T08:30:16;97460.41;;;26.85;53.22
9281;BME280;4679;47.966;7.958;2022-07-24T08:32:19;97460.28;;;26.93;53.15
9281;BME280;4679;47.966;7.958;2022-07-24T08:34:21;97457.44;;;27.14;52.55
9281;BME280;4679;47.966;7.958;2022-07-24T08:36:23;97461.84;;;27.31;51.94
9281;BME280;4679;47.966;7.958;2022-07-24T08:38:25;97462.84;;;27.39;52.15
9281;BME280;4679;47.966;7.958;2022-07-24T08:40:32;97453.41;;;27.48;51.74
9281;BME280;4679;47.966;7.958;2022-07-24T08:42:36;97465.78;;;27.58;51.93
9281;BME280;4679;47.966;7.958;2022-07-24T08:44:38;97460.28;;;27.70;51.43
9281;BME280;4679;47.966;7.958;2022-07-24T08:46:41;97460.94;;;27.79;50.62
9281;BME280;4679;47.966;7.958;2022-07-24T08:48:45;97462.53;;;27.80;50.94
9281;BME280;4679;47.966;7.958;2022-07-24T08:50:47;97457.25;;;27.87;50.84
9281;BME280;4679;47.966;7.958;2022-07-24T08:52:51;97453.75;;;27.87;50.36
9281;BME280;4679;47.966;7.958;2022-07-24T08:54:54;97456.00;;;27.85;50.43
9281;BME280;4679;47.966;7.958;2022-07-24T08:56:55;97458.41;;;27.86;50.39
9281;BME280;4679;47.966;7.958;2022-07-24T08:58:57;97456.63;;;27.78;50.20
9281;BME280;4679;47.966;7.958;2022-07-24T09:00:59;97452.69;;;27.91;50.44
9281;BME280;4679;47.966;7.958;2022-07-24T09:03:00;97461.69;;;28.20;49.87
9281;BME280;4679;47.966;7.958;2022-07-24T09:05:04;97453.41;;;28.32;49.43
9281;BME280;4679;47.966;7.958;2022-07-24T09:07:08;97453.53;;;28.51;49.11
9281;BME280;4679;47.966;7.958;2022-07-24T09:09:10;97453.88;;;28.50;48.47
9281;BME280;4679;47.966;7.958;2022-07-24T09:11:12;97455.47;;;28.51;48.43
9281;BME280;4679;47.966;7.958;2022-07-24T09:13:15;97450.94;;;28.58;48.21
9281;BME280;4679;47.966;7.958;2022-07-24T09:15:18;97455.63;;;28.74;48.16
9281;BME280;4679;47.966;7.958;2022-07-24T09:17:21;97461.72;;;28.83;48.06
9281;BME280;4679;47.966;7.958;2022-07-24T09:19:22;97462.66;;;29.06;47.46
9281;BME280;4679;47.966;7.958;2022-07-24T09:21:25;97452.34;;;29.15;47.25
9281;BME280;4679;47.966;7.958;2022-07-24T09:23:27;97457.28;;;29.10;47.40
9281;BME280;4679;47.966;7.958;2022-07-24T09:25:29;97457.41;;;28.97;47.40
9281;BME280;4679;47.966;7.958;2022-07-24T09:27:31;97460.75;;;28.91;46.86
9281;BME280;4679;47.966;7.958;2022-07-24T09:29:33;97454.47;;;29.06;47.00
9281;BME280;4679;47.966;7.958;2022-07-24T09:31:49;97444.00;;;29.43;46.36
9281;BME280;4679;47.966;7.958;2022-07-24T09:33:51;97437.16;;;29.53;46.01
9281;BME280;4679;47.966;7.958;2022-07-24T09:35:53;97445.72;;;29.51;46.24
9281;BME280;4679;47.966;7.958;2022-07-24T09:37:57;97441.97;;;29.40;46.13
9281;BME280;4679;47.966;7.958;2022-07-24T09:40:07;97439.97;;;29.56;45.77
9281;BME280;4679;47.966;7.958;2022-07-24T09:42:11;97437.78;;;29.65;45.54
9281;BME280;4679;47.966;7.958;2022-07-24T09:44:13;97437.50;;;29.70;45.70
9281;BME280;4679;47.966;7.958;2022-07-24T09:46:16;97441.03;;;29.71;45.50
9281;BME280;4679;47.966;7.958;2022-07-24T09:48:21;97439.59;;;29.77;45.29
9281;BME280;4679;47.966;7.958;2022-07-24T09:50:24;97436.50;;;29.79;45.37
9281;BME280;4679;47.966;7.958;2022-07-24T09:52:32;97437.88;;;29.88;44.99
9281;BME280;4679;47.966;7.958;2022-07-24T09:54:37;97432.97;;;29.97;44.71
9281;BME280;4679;47.966;7.958;2022-07-24T09:56:39;97433.69;;;29.94;44.76
9281;BME280;4679;47.966;7.958;2022-07-24T09:58:48;97430.25;;;29.97;44.66
9281;BME280;4679;47.966;7.958;2022-07-24T10:00:53;97425.34;;;30.06;44.27
9281;BME280;4679;47.966;7.958;2022-07-24T10:02:57;97427.91;;;30.19;44.10
9281;BME280;4679;47.966;7.958;2022-07-24T10:05:03;97427.91;;;30.19;43.78
9281;BME280;4679;47.966;7.958;2022-07-24T10:07:09;97426.19;;;30.11;43.74
9281;BME280;4679;47.966;7.958;2022-07-24T10:09:12;97429.84;;;30.18;43.58
9281;BME280;4679;47.966;7.958;2022-07-24T10:11:16;97428.00;;;30.26;43.78
9281;BME280;4679;47.966;7.958;2022-07-24T10:13:19;97426.69;;;30.39;43.57
9281;BME280;4679;47.966;7.958;2022-07-24T10:15:21;97420.22;;;30.28;43.27
9281;BME280;4679;47.966;7.958;2022-07-24T10:17:33;97419.94;;;30.33;43.03
9281;BME280;4679;47.966;7.958;2022-07-24T10:19:39;97429.44;;;30.39;43.14
9281;BME280;4679;47.966;7.958;2022-07-24T10:21:50;97414.81;;;30.31;43.10
9281;BME280;4679;47.966;7.958;2022-07-24T10:24:34;97410.81;;;30.48;42.53
9281;BME280;4679;47.966;7.958;2022-07-24T10:26:44;97420.44;;;30.61;42.58
9281;BME280;4679;47.966;7.958;2022-07-24T10:28:52;97414.88;;;30.81;41.86
9281;BME280;4679;47.966;7.958;2022-07-24T10:30:58;97419.50;;;31.03;41.60
9281;BME280;4679;47.966;7.958;2022-07-24T10:33:00;97417.81;;;31.21;41.69
9281;BME280;4679;47.966;7.958;2022-07-24T10:35:08;97411.91;;;30.93;41.47
9281;BME280;4679;47.966;7.958;2022-07-24T10:37:20;97412.94;;;30.58;42.31
9281;BME280;4679;47.966;7.958;2022-07-24T10:39:37;97410.38;;;30.46;42.25
9281;BME280;4679;47.966;7.958;2022-07-24T10:41:40;97414.63;;;30.43;42.38
9281;BME280;4679;47.966;7.958;2022-07-24T10:44:11;97402.16;;;30.46;41.75
9281;BME280;4679;47.966;7.958;2022-07-24T10:46:13;97406.59;;;30.77;41.81
9281;BME280;4679;47.966;7.958;2022-07-24T10:48:28;97404.97;;;30.99;41.19
9281;BME280;4679;47.966;7.958;2022-07-24T10:53:20;97405.28;;;30.67;41.42
9281;BME280;4679;47.966;7.958;2022-07-24T10:55:31;97398.41;;;30.81;41.48
9281;BME280;4679;47.966;7.958;2022-07-24T10:57:46;97401.69;;;30.63;41.10
9281;BME280;4679;47.966;7.958;2022-07-24T10:59:50;97395.41;;;30.63;41.13
9281;BME280;4679;47.966;7.958;2022-07-24T11:01:52;97395.53;;;30.47;41.27
9281;BME280;4679;47.966;7.958;2022-07-24T11:03:54;97388.56;;;30.76;40.95
9281;BME280;4679;47.966;7.958;2022-07-24T11:06:03;97390.88;;;31.27;40.04
9281;BME280;4679;47.966;7.958;2022-07-24T11:10:47;97392.72;;;31.19;39.71
9281;BME280;4679;47.966;7.958;2022-07-24T11:12:49;97385.34;;;31.23;40.05
9281;BME280;4679;47.966;7.958;2022-07-24T11:14:52;97383.50;;;31.34;39.54
9281;BME280;4679;47.966;7.958;2022-07-24T11:17:38;97375.22;;;31.27;39.95
9281;BME280;4679;47.966;7.958;2022-07-24T11:19:40;97372.81;;;31.56;39.21
9281;BME280;4679;47.966;7.958;2022-07-24T11:21:44;97372.28;;;31.43;39.90
9281;BME280;4679;47.966;7.958;2022-07-24T11:24:14;97374.78;;;31.25;39.75
9281;BME280;4679;47.966;7.958;2022-07-24T11:26:38;97363.69;;;31.15;39.45
9281;BME280;4679;47.966;7.958;2022-07-24T11:28:41;97365.09;;;31.31;39.31
9281;BME280;4679;47.966;7.958;2022-07-24T11:30:45;97368.81;;;31.50;39.29
9281;BME280;4679;47.966;7.958;2022-07-24T11:32:47;97367.56;;;31.43;38.83
9281;BME280;4679;47.966;7.958;2022-07-24T11:34:50;97359.13;;;31.59;39.05
9281;BME280;4679;47.966;7.958;2022-07-24T11:36:53;97357.34;;;31.74;38.33
9281;BME280;4679;47.966;7.958;2022-07-24T11:38:55;97348.38;;;31.80;38.11
9281;BME280;4679;47.966;7.958;2022-07-24T11:41:04;97349.50;;;31.72;38.60
9281;BME280;4679;47.966;7.958;2022-07-24T11:43:06;97349.41;;;32.02;38.16
9281;BME280;4679;47.966;7.958;2022-07-24T11:45:10;97352.59;;;32.08;37.74
9281;BME280;4679;47.966;7.958;2022-07-24T11:47:15;97348.47;;;31.88;38.30
9281;BME280;4679;47.966;7.958;2022-07-24T11:49:17;97348.66;;;32.05;37.67
9281;BME280;4679;47.966;7.958;2022-07-24T11:51:19;97337.72;;;32.12;37.64
9281;BME280;4679;47.966;7.958;2022-07-24T11:53:20;97343.41;;;32.34;37.11
9281;BME280;4679;47.966;7.958;2022-07-24T11:55:24;97345.63;;;32.65;37.05
9281;BME280;4679;47.966;7.958;2022-07-24T11:57:29;97346.53;;;32.87;36.76
9281;BME280;4679;47.966;7.958;2022-07-24T11:59:32;97345.34;;;32.81;36.38
9281;BME280;4679;47.966;7.958;2022-07-24T12:01:34;97337.13;;;32.84;36.92
9281;BME280;4679;47.966;7.958;2022-07-24T12:03:48;97338.94;;;32.66;36.34
9281;BME280;4679;47.966;7.958;2022-07-24T12:05:50;97335.53;;;32.29;36.87
9281;BME280;4679;47.966;7.958;2022-07-24T12:07:51;97328.16;;;32.40;36.76
9281;BME280;4679;47.966;7.958;2022-07-24T12:09:55;97330.63;;;32.59;37.18
9281;BME280;4679;47.966;7.958;2022-07-24T12:11:57;97322.06;;;32.71;36.30
9281;BME280;4679;47.966;7.958;2022-07-24T12:13:59;97320.44;;;32.60;37.02
9281;BME280;4679;47.966;7.958;2022-07-24T12:16:02;97326.44;;;32.72;36.21
9281;BME280;4679;47.966;7.958;2022-07-24T12:18:05;97325.72;;;32.82;36.35
9281;BME280;4679;47.966;7.958;2022-07-24T12:20:09;97313.81;;;32.68;35.95
9281;BME280;4679;47.966;7.958;2022-07-24T12:22:11;97323.56;;;32.58;36.23
9281;BME280;4679;47.966;7.958;2022-07-24T12:24:12;97312.75;;;32.87;35.95
9281;BME280;4679;47.966;7.958;2022-07-24T12:26:14;97320.28;;;32.97;36.08
9281;BME280;4679;47.966;7.958;2022-07-24T12:28:18;97310.09;;;32.42;36.54
9281;BME280;4679;47.966;7.958;2022-07-24T12:30:22;97303.41;;;32.36;36.23
9281;BME280;4679;47.966;7.958;2022-07-24T12:32:25;97298.28;;;32.93;35.92
9281;BME280;4679;47.966;7.958;2022-07-24T12:34:40;97298.84;;;33.34;35.39
9281;BME280;4679;47.966;7.958;2022-07-24T12:36:43;97300.09;;;33.58;34.95
9281;BME280;4679;47.966;7.958;2022-07-24T12:38:50;97289.47;;;33.57;34.61
9281;BME280;4679;47.966;7.958;2022-07-24T12:41:02;97285.56;;;33.58;35.02
9281;BME280;4679;47.966;7.958;2022-07-24T12:43:07;97281.63;;;33.66;34.81
9281;BME280;4679;47.966;7.958;2022-07-24T12:45:10;97292.19;;;33.39;35.38
9281;BME280;4679;47.966;7.958;2022-07-24T12:47:12;97284.63;;;33.18;35.54
9281;BME280;4679;47.966;7.958;2022-07-24T12:49:15;97286.16;;;33.08;35.64
9281;BME280;4679;47.966;7.958;2022-07-24T12:51:17;97286.19;;;33.12;35.27
9281;BME280;4679;47.966;7.958;2022-07-24T12:53:20;97268.34;;;32.77;35.23
9281;BME280;4679;47.966;7.958;2022-07-24T12:55:22;97271.53;;;32.83;35.14
9281;BME280;4679;47.966;7.958;2022-07-24T12:57:24;97271.16;;;32.92;34.93
9281;BME280;4679;47.966;7.958;2022-07-24T12:59:27;97272.78;;;33.00;35.54
9281;BME280;4679;47.966;7.958;2022-07-24T13:01:45;97256.41;;;33.39;34.67
9281;BME280;4679;47.966;7.958;2022-07-24T13:03:53;97258.81;;;33.54;34.21
9281;BME280;4679;47.966;7.958;2022-07-24T13:05:56;97254.94;;;33.91;34.08
9281;BME280;4679;47.966;7.958;2022-07-24T13:07:57;97254.13;;;33.94;33.72
9281;BME280;4679;47.966;7.958;2022-07-24T13:10:00;97243.53;;;34.00;33.85
9281;BME280;4679;47.966;7.958;2022-07-24T13:12:03;97241.56;;;33.86;34.23
9281;BME280;4679;47.966;7.958;2022-07-24T13:14:06;97245.81;;;33.48;34.42
9281;BME280;4679;47.966;7.958;2022-07-24T13:16:08;97245.41;;;33.46;34.52
9281;BME280;4679;47.966;7.958;2022-07-24T13:18:10;97251.78;;;33.82;34.05
9281;BME280;4679;47.966;7.958;2022-07-24T13:20:11;97238.41;;;33.98;34.00
9281;BME280;4679;47.966;7.958;2022-07-24T13:22:14;97236.03;;;34.14;33.47
9281;BME280;4679;47.966;7.958;2022-07-24T13:24:16;97244.66;;;34.45;33.50
9281;BME280;4679;47.966;7.958;2022-07-24T13:26:20;97238.38;;;34.41;33.45
9281;BME280;4679;47.966;7.958;2022-07-24T13:28:22;97227.78;;;34.21;33.44
9281;BME280;4679;47.966;7.958;2022-07-24T13:30:24;97230.13;;;34.16;33.75
9281;BME280;4679;47.966;7.958;2022-07-24T13:32:25;97231.72;;;34.31;33.42
9281;BME280;4679;47.966;7.958;2022-07-24T13:34:27;97235.50;;;34.76;32.86
9281;BME280;4679;47.966;7.958;2022-07-24T13:36:30;97228.94;;;34.28;33.36
9281;BME280;4679;47.966;7.958;2022-07-24T13:38:31;97223.03;;;34.29;33.52
9281;BME280;4679;47.966;7.958;2022-07-24T13:40:33;97214.75;;;34.26;33.31
9281;BME280;4679;47.966;7.958;2022-07-24T13:42:36;97216.75;;;34.18;33.56
9281;BME280;4679;47.966;7.958;2022-07-24T13:44:38;97217.13;;;34.31;33.29
9281;BME280;4679;47.966;7.958;2022-07-24T13:46:40;97216.25;;;34.62;32.97
9281;BME280;4679;47.966;7.958;2022-07-24T13:48:42;97208.44;;;34.43;33.33
9281;BME280;4679;47.966;7.958;2022-07-24T13:50:43;97201.75;;;34.51;32.92
9281;BME280;4679;47.966;7.958;2022-07-24T13:52:45;97204.06;;;34.60;32.92
9281;BME280;4679;47.966;7.958;2022-07-24T13:54:47;97202.53;;;34.23;33.25
9281;BME280;4679;47.966;7.958;2022-07-24T13:56:49;97202.16;;;34.24;33.28
9281;BME280;4679;47.966;7.958;2022-07-24T13:58:52;97197.41;;;34.43;33.00
9281;BME280;4679;47.966;7.958;2022-07-24T14:00:54;97186.34;;;34.57;32.93
9281;BME280;4679;47.966;7.958;2022-07-24T14:02:56;97189.19;;;34.21;33.05
9281;BME280;4679;47.966;7.958;2022-07-24T14:04:57;97191.22;;;33.89;33.78
9281;BME280;4679;47.966;7.958;2022-07-24T14:06:59;97184.50;;;34.01;33.27
9281;BME280;4679;47.966;7.958;2022-07-24T14:09:02;97176.56;;;34.38;33.06
9281;BME280;4679;47.966;7.958;2022-07-24T14:11:04;97176.03;;;34.72;32.65
9281;BME280;4679;47.966;7.958;2022-07-24T14:13:06;97177.28;;;34.64;32.32
9281;BME280;4679;47.966;7.958;2022-07-24T14:15:10;97173.06;;;34.13;33.06
9281;BME280;4679;47.966;7.958;2022-07-24T14:17:12;97164.03;;;33.95;33.57
9281;BME280;4679;47.966;7.958;2022-07-24T14:19:14;97163.56;;;34.24;33.03
9281;BME280;4679;47.966;7.958;2022-07-24T14:21:16;97165.13;;;34.43;32.84
9281;BME280;4679;47.966;7.958;2022-07-24T14:23:18;97160.34;;;34.58;32.63
9281;BME280;4679;47.966;7.958;2022-07-24T14:25:20;97155.16;;;34.74;32.55
9281;BME280;4679;47.966;7.958;2022-07-24T14:27:21;97150.84;;;34.80;32.46
9281;BME280;4679;47.966;7.958;2022-07-24T14:29:23;97150.88;;;34.66;32.47
9281;BME280;4679;47.966;7.958;2022-07-24T14:31:26;97141.44;;;34.60;32.57
9281;BME280;4679;47.966;7.958;2022-07-24T14:33:28;97145.31;;;34.70;32.50
9281;BME280;4679;47.966;7.958;2022-07-24T14:35:30;97127.97;;;34.76;32.63
9281;BME280;4679;47.966;7.958;2022-07-24T14:37:33;97139.41;;;34.75;32.57
9281;BME280;4679;47.966;7.958;2022-07-24T14:39:35;97131.59;;;34.63;32.64
9281;BME280;4679;47.966;7.958;2022-07-24T14:41:37;97136.69;;;34.68;32.60
9281;BME280;4679;47.966;7.958;2022-07-24T14:43:39;97128.38;;;34.78;32.32
9281;BME280;4679;47.966;7.958;2022-07-24T14:45:40;97126.75;;;34.88;32.39
9281;BME280;4679;47.966;7.958;2022-07-24T14:47:43;97130.44;;;34.53;32.59
9281;BME280;4679;47.966;7.958;2022-07-24T14:49:45;97123.81;;;34.36;32.64
9281;BME280;4679;47.966;7.958;2022-07-24T14:51:47;97127.38;;;34.33;33.01
9281;BME280;4679;47.966;7.958;2022-07-24T14:53:48;97123.38;;;34.52;32.52
9281;BME280;4679;47.966;7.958;2022-07-24T14:55:50;97122.59;;;34.41;32.82
9281;BME280;4679;47.966;7.958;2022-07-24T14:57:52;97120.94;;;34.61;32.73
9281;BME280;4679;47.966;7.958;2022-07-24T14:59:54;97115.84;;;34.56;32.65
9281;BME280;4679;47.966;7.958;2022-07-24T15:01:55;97113.97;;;34.24;32.65
9281;BME280;4679;47.966;7.958;2022-07-24T15:03:58;97118.41;;;33.97;33.46
9281;BME280;4679;47.966;7.958;2022-07-24T15:06:01;97110.91;;;33.94;33.15
9281;BME280;4679;47.966;7.958;2022-07-24T15:08:03;97114.41;;;34.12;32.87
9281;BME280;4679;47.966;7.958;2022-07-24T15:10:06;97107.38;;;33.97;33.04
9281;BME280;4679;47.966;7.958;2022-07-24T15:12:08;97103.44;;;34.02;33.00
9281;BME280;4679;47.966;7.958;2022-07-24T15:14:09;97108.50;;;34.17;32.66
9281;BME280;4679;47.966;7.958;2022-07-24T15:16:11;97098.66;;;34.31;33.00
9281;BME280;4679;47.966;7.958;2022-07-24T15:18:13;97107.19;;;34.54;32.75
9281;BME280;4679;47.966;7.958;2022-07-24T15:20:16;97092.28;;;34.41;32.47
9281;BME280;4679;47.966;7.958;2022-07-24T15:22:18;97100.59;;;34.37;32.63
9281;BME280;4679;47.966;7.958;2022-07-24T15:24:20;97095.44;;;34.43;32.40
9281;BME280;4679;47.966;7.958;2022-07-24T15:26:21;97089.94;;;34.39;32.63
9281;BME280;4679;47.966;7.958;2022-07-24T15:28:23;97086.00;;;34.40;32.67
9281;BME280;4679;47.966;7.958;2022-07-24T15:30:26;97090.00;;;34.29;32.94
9281;BME280;4679;47.966;7.958;2022-07-24T15:32:28;97083.72;;;34.21;32.82
9281;BME280;4679;47.966;7.958;2022-07-24T15:34:30;97081.44;;;33.80;33.01
9281;BME280;4679;47.966;7.958;2022-07-24T15:36:33;97077.91;;;33.83;32.95
9281;BME280;4679;47.966;7.958;2022-07-24T15:38:35;97071.13;;;34.09;32.90
9281;BME280;4679;47.966;7.958;2022-07-24T15:40:37;97071.50;;;34.15;32.69
9281;BME280;4679;47.966;7.958;2022-07-24T15:42:38;97066.31;;;34.38;32.28
9281;BME280;4679;47.966;7.958;2022-07-24T15:44:40;97068.28;;;34.38;32.63
9281;BME280;4679;47.966;7.958;2022-07-24T15:46:42;97069.06;;;34.38;32.67
9281;BME280;4679;47.966;7.958;2022-07-24T15:48:44;97070.63;;;34.43;32.29
9281;BME280;4679;47.966;7.958;2022-07-24T15:50:45;97062.75;;;34.45;32.48
9281;BME280;4679;47.966;7.958;2022-07-24T15:52:48;97063.38;;;34.70;32.19
9281;BME280;4679;47.966;7.958;2022-07-24T15:54:50;97058.84;;;35.05;31.80
9281;BME280;4679;47.966;7.958;2022-07-24T15:56:52;97058.09;;;35.01;31.72
9281;BME280;4679;47.966;7.958;2022-07-24T15:58:53;97059.59;;;35.12;31.64
9281;BME280;4679;47.966;7.958;2022-07-24T16:00:55;97057.47;;;34.68;32.24
9281;BME280;4679;47.966;7.958;2022-07-24T16:02:57;97064.69;;;34.51;32.33
9281;BME280;4679;47.966;7.958;2022-07-24T16:04:59;97056.91;;;34.25;32.24
9281;BME280;4679;47.966;7.958;2022-07-24T16:07:00;97051.88;;;34.02;32.47
9281;BME280;4679;47.966;7.958;2022-07-24T16:09:04;97043.69;;;33.67;33.33
9281;BME280;4679;47.966;7.958;2022-07-24T16:11:06;97051.53;;;33.90;32.86
9281;BME280;4679;47.966;7.958;2022-07-24T16:13:07;97038.47;;;34.08;32.68
9281;BME280;4679;47.966;7.958;2022-07-24T16:15:09;97039.25;;;34.12;32.29
9281;BME280;4679;47.966;7.958;2022-07-24T16:17:12;97028.34;;;33.80;32.87
9281;BME280;4679;47.966;7.958;2022-07-24T16:19:14;97029.13;;;33.70;33.15
9281;BME280;4679;47.966;7.958;2022-07-24T16:21:15;97029.16;;;33.63;33.09
9281;BME280;4679;47.966;7.958;2022-07-24T16:23:17;97027.22;;;33.52;32.86
9281;BME280;4679;47.966;7.958;2022-07-24T16:25:20;97014.63;;;33.51;33.04
9281;BME280;4679;47.966;7.958;2022-07-24T16:27:22;97009.91;;;33.56;33.52
9281;BME280;4679;47.966;7.958;2022-07-24T16:29:24;97017.38;;;33.59;33.22
9281;BME280;4679;47.966;7.958;2022-07-24T16:31:25;97015.84;;;33.33;33.18
9281;BME280;4679;47.966;7.958;2022-07-24T16:33:27;97009.56;;;33.25;33.52
9281;BME280;4679;47.966;7.958;2022-07-24T16:35:29;97016.22;;;33.06;33.81
9281;BME280;4679;47.966;7.958;2022-07-24T16:37:31;97018.56;;;32.87;33.96
9281;BME280;4679;47.966;7.958;2022-07-24T16:39:33;97011.47;;;32.68;34.52
9281;BME280;4679;47.966;7.958;2022-07-24T16:41:36;97011.44;;;32.57;34.64
9281;BME280;4679;47.966;7.958;2022-07-24T16:43:38;97006.69;;;32.40;34.09
9281;BME280;4679;47.966;7.958;2022-07-24T16:45:40;97003.16;;;32.36;34.28
9281;BME280;4679;47.966;7.958;2022-07-24T16:47:41;96995.34;;;32.45;34.02
9281;BME280;4679;47.966;7.958;2022-07-24T16:49:43;97000.81;;;32.45;34.66
9281;BME280;4679;47.966;7.958;2022-07-24T16:51:45;97000.84;;;32.56;34.14
9281;BME280;4679;47.966;7.958;2022-07-24T16:53:47;96996.13;;;32.38;34.81
9281;BME280;4679;47.966;7.958;2022-07-24T16:55:49;96998.81;;;32.28;34.89
9281;BME280;4679;47.966;7.958;2022-07-24T16:57:52;97003.56;;;32.34;34.57
9281;BME280;4679;47.966;7.958;2022-07-24T16:59:54;96999.25;;;32.37;34.32
9281;BME280;4679;47.966;7.958;2022-07-24T17:01:55;96987.84;;;32.28;34.54
9281;BME280;4679;47.966;7.958;2022-07-24T17:03:57;97002.34;;;32.21;34.67
9281;BME280;4679;47.966;7.958;2022-07-24T17:05:59;96993.63;;;32.08;35.27
9281;BME280;4679;47.966;7.958;2022-07-24T17:08:01;96997.16;;;32.02;35.41
9281;BME280;4679;47.966;7.958;2022-07-24T17:10:03;96997.91;;;31.92;35.06
9281;BME280;4679;47.966;7.958;2022-07-24T17:12:05;96998.66;;;31.85;35.68
9281;BME280;4679;47.966;7.958;2022-07-24T17:14:11;97001.03;;;31.90;35.58
9281;BME280;4679;47.966;7.958;2022-07-24T17:16:12;96998.31;;;32.01;35.49
9281;BME280;4679;47.966;7.958;2022-07-24T17:18:14;96998.31;;;31.97;35.49
9281;BME280;4679;47.966;7.958;2022-07-24T17:20:16;97001.03;;;31.90;35.44
9281;BME280;4679;47.966;7.958;2022-07-24T17:22:21;97002.13;;;31.78;35.52
9281;BME280;4679;47.966;7.958;2022-07-24T17:24:23;96992.34;;;31.74;35.42
9281;BME280;4679;47.966;7.958;2022-07-24T17:26:26;97001.34;;;31.74;35.90
9281;BME280;4679;47.966;7.958;2022-07-24T17:28:28;97002.09;;;31.68;35.75
9281;BME280;4679;47.966;7.958;2022-07-24T17:30:32;97010.69;;;31.66;35.93
9281;BME280;4679;47.966;7.958;2022-07-24T17:32:34;97000.44;;;31.56;36.18
9281;BME280;4679;47.966;7.958;2022-07-24T17:34:36;97003.91;;;31.46;35.56
9281;BME280;4679;47.966;7.958;2022-07-24T17:36:38;97002.28;;;31.38;35.62
9281;BME280;4679;47.966;7.958;2022-07-24T17:38:39;97003.78;;;31.28;36.36